sensor_id;sensor_type;location;lat;lon;timestamp;temperature;humidity
15239;DHT22;7722;53.274;9.500;2024-02-26T00:01:20;1.20;99.90
15239;DHT22;7722;53.274;9.500;2024-02-26T00:03:48;1.10;99.90
15239;DHT22;7722;53.274;9.500;2024-02-26T00:06:15;1.10;99.90
15239;DHT22;7722;53.274;9.500;2024-02-26T00:08:44;1.10;99.90
15239;DHT22;7722;53.274;9.500;2024-02-26T00:11:12;1.10;99.90
15239;DHT22;7722;53.274;9.500;2024-02-26T00:13:40;1.10;99.90
15239;DHT22;7722;53.274;9.500;2024-02-26T00:16:07;1.10;99.90
15239;DHT22;7722;53.274;9.500;2024-02-26T00:18:34;1.10;99.90
15239;DHT22;7722;53.274;9.500;2024-02-26T00:21:04;1.00;99.90
15239;DHT22;7722;53.274;9.500;2024-02-26T00:23:31;0.90;99.90
15239;DHT22;7722;53.274;9.500;2024-02-26T00:25:58;0.90;99.90
15239;DHT22;7722;53.274;9.500;2024-02-26T00:28:25;0.90;99.90
15239;DHT22;7722;53.274;9.500;2024-02-26T00:30:53;0.90;99.90
15239;DHT22;7722;53.274;9.500;2024-02-26T00:33:22;0.90;99.90
15239;DHT22;7722;53.274;9.500;2024-02-26T00:35:49;0.90;99.90
15239;DHT22;7722;53.274;9.500;2024-02-26T00:38:17;0.80;99.90
15239;DHT22;7722;53.274;9.500;2024-02-26T00:40:44;0.90;99.90
15239;DHT22;7722;53.274;9.500;2024-02-26T00:43:12;0.90;99.90
15239;DHT22;7722;53.274;9.500;2024-02-26T00:45:39;0.90;99.90
15239;DHT22;7722;53.274;9.500;2024-02-26T00:48:06;0.90;99.90
15239;DHT22;7722;53.274;9.500;2024-02-26T00:50:34;0.80;99.90
15239;DHT22;7722;53.274;9.500;2024-02-26T00:53:01;0.90;99.90
15239;DHT22;7722;53.274;9.500;2024-02-26T00:55:30;0.90;99.90
15239;DHT22;7722;53.274;9.500;2024-02-26T00:57:57;0.90;99.90
15239;DHT22;7722;53.274;9.500;2024-02-26T01:00:24;1.00;99.90
15239;DHT22;7722;53.274;9.500;2024-02-26T01:02:51;0.90;99.90
15239;DHT22;7722;53.274;9.500;2024-02-26T01:05:18;0.90;99.90
15239;DHT22;7722;53.274;9.500;2024-02-26T01:07:45;0.90;99.90
15239;DHT22;7722;53.274;9.500;2024-02-26T01:10:12;1.00;99.90
15239;DHT22;7722;53.274;9.500;2024-02-26T01:12:41;1.00;99.90
15239;DHT22;7722;53.274;9.500;2024-02-26T01:15:08;0.90;99.90
15239;DHT22;7722;53.274;9.500;2024-02-26T01:17:35;0.90;99.90
15239;DHT22;7722;53.274;9.500;2024-02-26T01:20:05;0.90;99.90
15239;DHT22;7722;53.274;9.500;2024-02-26T01:22:32;0.90;99.90
15239;DHT22;7722;53.274;9.500;2024-02-26T01:24:59;0.90;99.90
15239;DHT22;7722;53.274;9.500;2024-02-26T01:27:27;0.80;99.90
15239;DHT22;7722;53.274;9.500;2024-02-26T01:29:55;0.70;99.90
15239;DHT22;7722;53.274;9.500;2024-02-26T01:32:22;0.70;99.90
15239;DHT22;7722;53.274;9.500;2024-02-26T01:34:49;0.60;99.90
15239;DHT22;7722;53.274;9.500;2024-02-26T01:37:16;0.50;99.90
15239;DHT22;7722;53.274;9.500;2024-02-26T01:39:43;0.50;99.90
15239;DHT22;7722;53.274;9.500;2024-02-26T01:42:10;0.60;99.90
15239;DHT22;7722;53.274;9.500;2024-02-26T01:44:37;0.50;99.90
15239;DHT22;7722;53.274;9.500;2024-02-26T01:47:07;0.60;99.90
15239;DHT22;7722;53.274;9.500;2024-02-26T01:49:37;0.60;99.90
15239;DHT22;7722;53.274;9.500;2024-02-26T01:52:06;0.60;99.90
15239;DHT22;7722;53.274;9.500;2024-02-26T01:54:34;0.60;99.90
15239;DHT22;7722;53.274;9.500;2024-02-26T01:57:02;0.50;99.90
15239;DHT22;7722;53.274;9.500;2024-02-26T01:59:30;0.50;99.90
15239;DHT22;7722;53.274;9.500;2024-02-26T02:01:59;0.50;99.90
15239;DHT22;7722;53.274;9.500;2024-02-26T02:04:29;0.50;99.90
15239;DHT22;7722;53.274;9.500;2024-02-26T02:06:57;0.50;99.90
15239;DHT22;7722;53.274;9.500;2024-02-26T02:09:25;0.50;99.90
15239;DHT22;7722;53.274;9.500;2024-02-26T02:11:52;0.60;99.90
15239;DHT22;7722;53.274;9.500;2024-02-26T02:14:20;0.60;99.90
15239;DHT22;7722;53.274;9.500;2024-02-26T02:16:47;0.60;99.90
15239;DHT22;7722;53.274;9.500;2024-02-26T02:19:14;0.50;99.90
15239;DHT22;7722;53.274;9.500;2024-02-26T02:21:42;0.50;99.90
15239;DHT22;7722;53.274;9.500;2024-02-26T02:24:09;0.50;99.90
15239;DHT22;7722;53.274;9.500;2024-02-26T02:26:37;0.40;99.90
15239;DHT22;7722;53.274;9.500;2024-02-26T02:29:04;0.30;99.90
15239;DHT22;7722;53.274;9.500;2024-02-26T02:31:32;0.30;99.90
15239;DHT22;7722;53.274;9.500;2024-02-26T02:33:59;0.30;99.90
15239;DHT22;7722;53.274;9.500;2024-02-26T02:36:27;0.20;99.90
15239;DHT22;7722;53.274;9.500;2024-02-26T02:38:55;0.20;99.90
15239;DHT22;7722;53.274;9.500;2024-02-26T02:41:23;0.20;99.90
15239;DHT22;7722;53.274;9.500;2024-02-26T02:43:52;0.10;99.90
15239;DHT22;7722;53.274;9.500;2024-02-26T02:46:19;0.10;99.90
15239;DHT22;7722;53.274;9.500;2024-02-26T02:48:46;0.10;99.90
15239;DHT22;7722;53.274;9.500;2024-02-26T02:51:13;0.10;99.90
15239;DHT22;7722;53.274;9.500;2024-02-26T02:53:41;0.10;99.90
15239;DHT22;7722;53.274;9.500;2024-02-26T02:56:09;0.10;99.90
15239;DHT22;7722;53.274;9.500;2024-02-26T02:58:36;0.10;99.90
15239;DHT22;7722;53.274;9.500;2024-02-26T03:01:03;0.00;99.90
15239;DHT22;7722;53.274;9.500;2024-02-26T03:03:30;0.00;99.90
15239;DHT22;7722;53.274;9.500;2024-02-26T03:05:57;0.00;99.90
15239;DHT22;7722;53.274;9.500;2024-02-26T03:08:24;0.00;99.90
15239;DHT22;7722;53.274;9.500;2024-02-26T03:10:52;0.10;99.90
15239;DHT22;7722;53.274;9.500;2024-02-26T03:13:20;0.10;99.90
15239;DHT22;7722;53.274;9.500;2024-02-26T03:15:48;0.10;99.90
15239;DHT22;7722;53.274;9.500;2024-02-26T03:18:15;0.10;99.90
15239;DHT22;7722;53.274;9.500;2024-02-26T03:20:42;0.20;99.90
15239;DHT22;7722;53.274;9.500;2024-02-26T03:23:09;0.20;99.90
15239;DHT22;7722;53.274;9.500;2024-02-26T03:25:38;0.20;99.90
15239;DHT22;7722;53.274;9.500;2024-02-26T03:28:05;0.20;99.90
15239;DHT22;7722;53.274;9.500;2024-02-26T03:30:34;0.10;99.90
15239;DHT22;7722;53.274;9.500;2024-02-26T03:33:01;0.10;99.90
15239;DHT22;7722;53.274;9.500;2024-02-26T03:35:29;0.00;99.90
15239;DHT22;7722;53.274;9.500;2024-02-26T03:37:56;0.00;99.90
15239;DHT22;7722;53.274;9.500;2024-02-26T03:40:23;-0.10;99.90
15239;DHT22;7722;53.274;9.500;2024-02-26T03:42:50;-0.10;99.90
15239;DHT22;7722;53.274;9.500;2024-02-26T03:45:19;-0.10;99.90
15239;DHT22;7722;53.274;9.500;2024-02-26T03:47:48;-0.10;99.90
15239;DHT22;7722;53.274;9.500;2024-02-26T03:50:15;-0.10;99.90
15239;DHT22;7722;53.274;9.500;2024-02-26T03:52:42;-0.10;99.90
15239;DHT22;7722;53.274;9.500;2024-02-26T03:55:09;0.00;99.90
15239;DHT22;7722;53.274;9.500;2024-02-26T03:57:36;0.10;99.90
15239;DHT22;7722;53.274;9.500;2024-02-26T04:00:04;0.20;99.90
15239;DHT22;7722;53.274;9.500;2024-02-26T04:02:32;0.20;99.90
15239;DHT22;7722;53.274;9.500;2024-02-26T04:05:00;0.20;99.90
15239;DHT22;7722;53.274;9.500;2024-02-26T04:07:27;0.10;99.90
15239;DHT22;7722;53.274;9.500;2024-02-26T04:09:54;0.10;99.90
15239;DHT22;7722;53.274;9.500;2024-02-26T04:12:21;0.10;99.90
15239;DHT22;7722;53.274;9.500;2024-02-26T04:14:48;0.00;99.90
15239;DHT22;7722;53.274;9.500;2024-02-26T04:17:15;0.10;99.90
15239;DHT22;7722;53.274;9.500;2024-02-26T04:19:43;0.00;99.90
15239;DHT22;7722;53.274;9.500;2024-02-26T04:22:11;0.00;99.90
15239;DHT22;7722;53.274;9.500;2024-02-26T04:24:38;0.00;99.90
15239;DHT22;7722;53.274;9.500;2024-02-26T04:27:05;0.00;99.90
15239;DHT22;7722;53.274;9.500;2024-02-26T04:29:32;0.00;99.90
15239;DHT22;7722;53.274;9.500;2024-02-26T04:31:59;0.10;99.90
15239;DHT22;7722;53.274;9.500;2024-02-26T04:34:26;0.10;99.90
15239;DHT22;7722;53.274;9.500;2024-02-26T04:36:53;0.10;99.90
15239;DHT22;7722;53.274;9.500;2024-02-26T04:39:22;0.10;99.90
15239;DHT22;7722;53.274;9.500;2024-02-26T04:41:49;0.10;99.90
15239;DHT22;7722;53.274;9.500;2024-02-26T04:44:16;0.10;99.90
15239;DHT22;7722;53.274;9.500;2024-02-26T04:46:43;0.20;99.90
15239;DHT22;7722;53.274;9.500;2024-02-26T04:49:10;0.20;99.90
15239;DHT22;7722;53.274;9.500;2024-02-26T04:51:37;0.30;99.90
15239;DHT22;7722;53.274;9.500;2024-02-26T04:54:04;0.30;99.90
15239;DHT22;7722;53.274;9.500;2024-02-26T04:56:33;0.30;99.90
15239;DHT22;7722;53.274;9.500;2024-02-26T04:59:00;0.30;99.90
15239;DHT22;7722;53.274;9.500;2024-02-26T05:01:27;0.40;99.90
15239;DHT22;7722;53.274;9.500;2024-02-26T05:03:54;0.40;99.90
15239;DHT22;7722;53.274;9.500;2024-02-26T05:06:21;0.40;99.90
15239;DHT22;7722;53.274;9.500;2024-02-26T05:08:48;0.40;99.90
15239;DHT22;7722;53.274;9.500;2024-02-26T05:11:15;0.40;99.90
15239;DHT22;7722;53.274;9.500;2024-02-26T05:13:45;0.40;99.90
15239;DHT22;7722;53.274;9.500;2024-02-26T05:16:12;0.50;99.90
15239;DHT22;7722;53.274;9.500;2024-02-26T05:18:39;0.50;99.90
15239;DHT22;7722;53.274;9.500;2024-02-26T05:21:06;0.50;99.90
15239;DHT22;7722;53.274;9.500;2024-02-26T05:23:33;0.50;99.90
15239;DHT22;7722;53.274;9.500;2024-02-26T05:26:00;0.50;99.90
15239;DHT22;7722;53.274;9.500;2024-02-26T05:28:27;0.50;99.90
15239;DHT22;7722;53.274;9.500;2024-02-26T05:30:56;0.50;99.90
15239;DHT22;7722;53.274;9.500;2024-02-26T05:33:23;0.60;99.90
15239;DHT22;7722;53.274;9.500;2024-02-26T05:35:50;0.60;99.90
15239;DHT22;7722;53.274;9.500;2024-02-26T05:38:17;0.50;99.90
15239;DHT22;7722;53.274;9.500;2024-02-26T05:40:44;0.60;99.90
15239;DHT22;7722;53.274;9.500;2024-02-26T05:43:12;0.70;99.90
15239;DHT22;7722;53.274;9.500;2024-02-26T05:45:41;0.70;99.90
15239;DHT22;7722;53.274;9.500;2024-02-26T05:48:09;0.70;99.90
15239;DHT22;7722;53.274;9.500;2024-02-26T05:50:36;0.70;99.90
15239;DHT22;7722;53.274;9.500;2024-02-26T05:53:04;0.70;99.90
15239;DHT22;7722;53.274;9.500;2024-02-26T05:55:31;0.80;99.90
15239;DHT22;7722;53.274;9.500;2024-02-26T05:57:58;0.90;99.90
15239;DHT22;7722;53.274;9.500;2024-02-26T06:00:25;0.90;99.90
15239;DHT22;7722;53.274;9.500;2024-02-26T06:05:23;0.90;99.90
15239;DHT22;7722;53.274;9.500;2024-02-26T06:07:50;1.00;99.90
15239;DHT22;7722;53.274;9.500;2024-02-26T06:10:18;1.00;99.90
15239;DHT22;7722;53.274;9.500;2024-02-26T06:12:46;1.00;99.90
15239;DHT22;7722;53.274;9.500;2024-02-26T06:15:14;1.00;99.90
15239;DHT22;7722;53.274;9.500;2024-02-26T06:17:41;1.00;99.90
15239;DHT22;7722;53.274;9.500;2024-02-26T06:20:08;1.10;99.90
15239;DHT22;7722;53.274;9.500;2024-02-26T06:22:40;1.10;99.90
15239;DHT22;7722;53.274;9.500;2024-02-26T06:25:08;1.10;99.90
15239;DHT22;7722;53.274;9.500;2024-02-26T06:27:35;1.10;99.90
15239;DHT22;7722;53.274;9.500;2024-02-26T06:30:02;1.20;99.90
15239;DHT22;7722;53.274;9.500;2024-02-26T06:32:29;1.20;99.90
15239;DHT22;7722;53.274;9.500;2024-02-26T06:34:57;1.20;99.90
15239;DHT22;7722;53.274;9.500;2024-02-26T06:37:24;1.30;99.90
15239;DHT22;7722;53.274;9.500;2024-02-26T06:39:52;1.40;99.90
15239;DHT22;7722;53.274;9.500;2024-02-26T06:42:19;1.40;99.90
15239;DHT22;7722;53.274;9.500;2024-02-26T06:44:47;1.50;99.90
15239;DHT22;7722;53.274;9.500;2024-02-26T06:47:14;1.50;99.90
15239;DHT22;7722;53.274;9.500;2024-02-26T06:49:41;1.60;99.90
15239;DHT22;7722;53.274;9.500;2024-02-26T06:52:09;1.70;99.90
15239;DHT22;7722;53.274;9.500;2024-02-26T06:54:36;1.70;99.90
15239;DHT22;7722;53.274;9.500;2024-02-26T06:57:05;1.70;99.90
15239;DHT22;7722;53.274;9.500;2024-02-26T06:59:32;1.80;99.90
15239;DHT22;7722;53.274;9.500;2024-02-26T07:01:59;1.80;99.90
15239;DHT22;7722;53.274;9.500;2024-02-26T07:04:26;1.90;99.90
15239;DHT22;7722;53.274;9.500;2024-02-26T07:06:53;1.90;99.90
15239;DHT22;7722;53.274;9.500;2024-02-26T07:09:20;1.90;99.90
15239;DHT22;7722;53.274;9.500;2024-02-26T07:11:47;2.00;99.90
15239;DHT22;7722;53.274;9.500;2024-02-26T07:14:16;2.00;99.90
15239;DHT22;7722;53.274;9.500;2024-02-26T07:16:43;2.10;99.90
15239;DHT22;7722;53.274;9.500;2024-02-26T07:19:10;2.10;99.90
15239;DHT22;7722;53.274;9.500;2024-02-26T07:21:37;2.20;99.90
15239;DHT22;7722;53.274;9.500;2024-02-26T07:24:05;2.20;99.90
15239;DHT22;7722;53.274;9.500;2024-02-26T07:26:32;2.30;99.90
15239;DHT22;7722;53.274;9.500;2024-02-26T07:28:59;2.30;99.90
15239;DHT22;7722;53.274;9.500;2024-02-26T07:31:28;2.40;99.90
15239;DHT22;7722;53.274;9.500;2024-02-26T07:33:55;2.40;99.90
15239;DHT22;7722;53.274;9.500;2024-02-26T07:36:22;2.50;99.90
15239;DHT22;7722;53.274;9.500;2024-02-26T07:38:49;2.50;99.90
15239;DHT22;7722;53.274;9.500;2024-02-26T07:41:17;2.50;99.90
15239;DHT22;7722;53.274;9.500;2024-02-26T07:43:44;2.60;99.90
15239;DHT22;7722;53.274;9.500;2024-02-26T07:46:12;2.60;99.90
15239;DHT22;7722;53.274;9.500;2024-02-26T07:48:41;2.70;99.90
15239;DHT22;7722;53.274;9.500;2024-02-26T07:51:08;2.60;99.90
15239;DHT22;7722;53.274;9.500;2024-02-26T07:53:35;2.60;99.90
15239;DHT22;7722;53.274;9.500;2024-02-26T07:56:02;2.70;99.90
15239;DHT22;7722;53.274;9.500;2024-02-26T07:58:29;2.80;99.90
15239;DHT22;7722;53.274;9.500;2024-02-26T08:00:56;2.80;99.90
15239;DHT22;7722;53.274;9.500;2024-02-26T08:03:23;2.90;99.90
15239;DHT22;7722;53.274;9.500;2024-02-26T08:05:52;2.90;99.90
15239;DHT22;7722;53.274;9.500;2024-02-26T08:08:19;2.90;99.90
15239;DHT22;7722;53.274;9.500;2024-02-26T08:10:46;3.00;99.90
15239;DHT22;7722;53.274;9.500;2024-02-26T08:13:13;3.00;99.90
15239;DHT22;7722;53.274;9.500;2024-02-26T08:15:40;3.00;99.90
15239;DHT22;7722;53.274;9.500;2024-02-26T08:18:07;3.10;99.90
15239;DHT22;7722;53.274;9.500;2024-02-26T08:20:35;3.20;99.90
15239;DHT22;7722;53.274;9.500;2024-02-26T08:23:04;3.30;99.90
15239;DHT22;7722;53.274;9.500;2024-02-26T08:25:31;3.30;99.90
15239;DHT22;7722;53.274;9.500;2024-02-26T08:27:59;3.30;99.90
15239;DHT22;7722;53.274;9.500;2024-02-26T08:30:26;3.40;99.90
15239;DHT22;7722;53.274;9.500;2024-02-26T08:32:53;3.50;99.90
15239;DHT22;7722;53.274;9.500;2024-02-26T08:35:20;3.60;99.90
15239;DHT22;7722;53.274;9.500;2024-02-26T08:37:47;3.60;99.90
15239;DHT22;7722;53.274;9.500;2024-02-26T08:40:16;3.80;99.90
15239;DHT22;7722;53.274;9.500;2024-02-26T08:42:45;3.70;99.90
15239;DHT22;7722;53.274;9.500;2024-02-26T08:45:12;3.90;99.90
15239;DHT22;7722;53.274;9.500;2024-02-26T08:47:39;3.90;99.90
15239;DHT22;7722;53.274;9.500;2024-02-26T08:50:06;3.90;99.90
15239;DHT22;7722;53.274;9.500;2024-02-26T08:52:35;4.00;99.90
15239;DHT22;7722;53.274;9.500;2024-02-26T08:55:02;4.00;99.90
15239;DHT22;7722;53.274;9.500;2024-02-26T08:57:31;4.00;99.90
15239;DHT22;7722;53.274;9.500;2024-02-26T08:59:59;4.10;99.90
15239;DHT22;7722;53.274;9.500;2024-02-26T09:02:27;4.10;99.90
15239;DHT22;7722;53.274;9.500;2024-02-26T09:04:54;4.10;99.90
15239;DHT22;7722;53.274;9.500;2024-02-26T09:07:21;4.30;99.90
15239;DHT22;7722;53.274;9.500;2024-02-26T09:09:48;4.20;99.90
15239;DHT22;7722;53.274;9.500;2024-02-26T09:12:15;4.40;99.90
15239;DHT22;7722;53.274;9.500;2024-02-26T09:14:43;4.40;99.90
15239;DHT22;7722;53.274;9.500;2024-02-26T09:17:10;4.30;99.90
15239;DHT22;7722;53.274;9.500;2024-02-26T09:19:38;4.30;99.90
15239;DHT22;7722;53.274;9.500;2024-02-26T09:22:06;4.40;99.90
15239;DHT22;7722;53.274;9.500;2024-02-26T09:24:33;4.50;99.90
15239;DHT22;7722;53.274;9.500;2024-02-26T09:27:00;4.50;99.90
15239;DHT22;7722;53.274;9.500;2024-02-26T09:29:27;4.50;99.90
15239;DHT22;7722;53.274;9.500;2024-02-26T09:31:56;4.50;99.90
15239;DHT22;7722;53.274;9.500;2024-02-26T09:34:23;4.50;99.90
15239;DHT22;7722;53.274;9.500;2024-02-26T09:36:50;4.50;99.90
15239;DHT22;7722;53.274;9.500;2024-02-26T09:39:17;4.60;99.90
15239;DHT22;7722;53.274;9.500;2024-02-26T09:41:47;4.70;99.90
15239;DHT22;7722;53.274;9.500;2024-02-26T09:44:18;4.80;99.90
15239;DHT22;7722;53.274;9.500;2024-02-26T09:46:45;4.90;99.90
15239;DHT22;7722;53.274;9.500;2024-02-26T09:49:15;4.90;99.90
15239;DHT22;7722;53.274;9.500;2024-02-26T09:51:42;5.10;99.90
15239;DHT22;7722;53.274;9.500;2024-02-26T09:54:10;5.10;99.90
15239;DHT22;7722;53.274;9.500;2024-02-26T09:56:39;5.30;99.90
15239;DHT22;7722;53.274;9.500;2024-02-26T09:59:15;5.30;99.90
15239;DHT22;7722;53.274;9.500;2024-02-26T10:01:44;5.30;99.90
15239;DHT22;7722;53.274;9.500;2024-02-26T10:04:14;5.50;99.90
15239;DHT22;7722;53.274;9.500;2024-02-26T10:06:42;5.50;99.90
15239;DHT22;7722;53.274;9.500;2024-02-26T10:09:11;5.50;99.90
15239;DHT22;7722;53.274;9.500;2024-02-26T10:11:38;5.60;99.90
15239;DHT22;7722;53.274;9.500;2024-02-26T10:14:08;5.70;99.90
15239;DHT22;7722;53.274;9.500;2024-02-26T10:16:37;6.10;99.90
15239;DHT22;7722;53.274;9.500;2024-02-26T10:19:05;6.10;99.90
15239;DHT22;7722;53.274;9.500;2024-02-26T10:21:33;6.10;99.90
15239;DHT22;7722;53.274;9.500;2024-02-26T10:24:00;6.20;99.90
15239;DHT22;7722;53.274;9.500;2024-02-26T10:26:27;6.50;99.90
15239;DHT22;7722;53.274;9.500;2024-02-26T10:28:59;6.70;99.90
15239;DHT22;7722;53.274;9.500;2024-02-26T10:31:27;6.70;99.90
15239;DHT22;7722;53.274;9.500;2024-02-26T10:33:55;6.80;99.90
15239;DHT22;7722;53.274;9.500;2024-02-26T10:36:23;7.00;99.90
15239;DHT22;7722;53.274;9.500;2024-02-26T10:38:54;7.10;99.90
15239;DHT22;7722;53.274;9.500;2024-02-26T10:41:22;7.20;99.90
15239;DHT22;7722;53.274;9.500;2024-02-26T10:43:50;7.30;99.90
15239;DHT22;7722;53.274;9.500;2024-02-26T10:46:18;7.30;99.90
15239;DHT22;7722;53.274;9.500;2024-02-26T10:48:50;7.50;99.90
15239;DHT22;7722;53.274;9.500;2024-02-26T10:51:18;7.50;99.90
15239;DHT22;7722;53.274;9.500;2024-02-26T10:53:48;7.50;99.90
15239;DHT22;7722;53.274;9.500;2024-02-26T10:56:21;7.70;99.90
15239;DHT22;7722;53.274;9.500;2024-02-26T10:58:51;7.70;99.90
15239;DHT22;7722;53.274;9.500;2024-02-26T11:01:19;7.60;99.90
15239;DHT22;7722;53.274;9.500;2024-02-26T11:03:48;7.60;99.90
15239;DHT22;7722;53.274;9.500;2024-02-26T11:06:17;7.60;99.90
15239;DHT22;7722;53.274;9.500;2024-02-26T11:08:48;7.70;99.90
15239;DHT22;7722;53.274;9.500;2024-02-26T11:11:16;7.80;99.90
15239;DHT22;7722;53.274;9.500;2024-02-26T11:13:47;7.90;99.90
15239;DHT22;7722;53.274;9.500;2024-02-26T11:16:18;8.00;99.90
15239;DHT22;7722;53.274;9.500;2024-02-26T11:18:47;8.10;99.90
15239;DHT22;7722;53.274;9.500;2024-02-26T11:21:16;8.00;99.90
15239;DHT22;7722;53.274;9.500;2024-02-26T11:23:44;7.90;99.90
15239;DHT22;7722;53.274;9.500;2024-02-26T11:26:14;8.10;99.90
15239;DHT22;7722;53.274;9.500;2024-02-26T11:28:42;8.10;99.90
15239;DHT22;7722;53.274;9.500;2024-02-26T11:31:12;8.10;99.90
15239;DHT22;7722;53.274;9.500;2024-02-26T11:33:39;8.10;99.90
15239;DHT22;7722;53.274;9.500;2024-02-26T11:36:09;8.30;99.90
15239;DHT22;7722;53.274;9.500;2024-02-26T11:38:36;8.50;99.90
15239;DHT22;7722;53.274;9.500;2024-02-26T11:41:04;8.60;99.90
15239;DHT22;7722;53.274;9.500;2024-02-26T11:43:50;8.60;99.90
15239;DHT22;7722;53.274;9.500;2024-02-26T11:46:28;8.70;99.90
15239;DHT22;7722;53.274;9.500;2024-02-26T11:48:58;8.70;99.90
15239;DHT22;7722;53.274;9.500;2024-02-26T11:51:26;8.80;99.90
15239;DHT22;7722;53.274;9.500;2024-02-26T11:53:54;8.70;99.90
15239;DHT22;7722;53.274;9.500;2024-02-26T11:56:24;8.70;99.90
15239;DHT22;7722;53.274;9.500;2024-02-26T11:58:59;8.70;99.90
15239;DHT22;7722;53.274;9.500;2024-02-26T12:01:42;8.80;99.90
15239;DHT22;7722;53.274;9.500;2024-02-26T12:04:14;8.70;99.90
15239;DHT22;7722;53.274;9.500;2024-02-26T12:06:47;8.50;99.90
15239;DHT22;7722;53.274;9.500;2024-02-26T12:09:33;8.40;99.90
15239;DHT22;7722;53.274;9.500;2024-02-26T12:12:02;8.60;99.90
15239;DHT22;7722;53.274;9.500;2024-02-26T12:14:29;8.80;99.90
15239;DHT22;7722;53.274;9.500;2024-02-26T12:16:58;8.80;99.90
15239;DHT22;7722;53.274;9.500;2024-02-26T12:19:27;8.80;99.90
15239;DHT22;7722;53.274;9.500;2024-02-26T12:21:55;8.90;99.90
15239;DHT22;7722;53.274;9.500;2024-02-26T12:24:22;8.80;99.90
15239;DHT22;7722;53.274;9.500;2024-02-26T12:26:49;8.50;99.90
15239;DHT22;7722;53.274;9.500;2024-02-26T12:29:16;8.60;99.90
15239;DHT22;7722;53.274;9.500;2024-02-26T12:31:43;8.80;99.90
15239;DHT22;7722;53.274;9.500;2024-02-26T12:34:12;8.90;99.90
15239;DHT22;7722;53.274;9.500;2024-02-26T12:36:39;9.00;99.90
15239;DHT22;7722;53.274;9.500;2024-02-26T12:39:07;8.80;99.90
15239;DHT22;7722;53.274;9.500;2024-02-26T12:41:35;8.60;99.90
15239;DHT22;7722;53.274;9.500;2024-02-26T12:44:03;8.80;99.90
15239;DHT22;7722;53.274;9.500;2024-02-26T12:46:30;8.90;99.90
15239;DHT22;7722;53.274;9.500;2024-02-26T12:48:58;9.00;99.90
15239;DHT22;7722;53.274;9.500;2024-02-26T12:51:27;9.10;99.90
15239;DHT22;7722;53.274;9.500;2024-02-26T12:53:55;9.30;99.90
15239;DHT22;7722;53.274;9.500;2024-02-26T12:56:23;9.30;99.90
15239;DHT22;7722;53.274;9.500;2024-02-26T12:58:51;9.40;99.90
15239;DHT22;7722;53.274;9.500;2024-02-26T13:01:21;9.50;99.90
15239;DHT22;7722;53.274;9.500;2024-02-26T13:03:50;9.40;99.90
15239;DHT22;7722;53.274;9.500;2024-02-26T13:06:18;9.30;99.90
15239;DHT22;7722;53.274;9.500;2024-02-26T13:08:48;9.50;99.90
15239;DHT22;7722;53.274;9.500;2024-02-26T13:11:16;9.60;99.90
15239;DHT22;7722;53.274;9.500;2024-02-26T13:13:48;9.80;99.90
15239;DHT22;7722;53.274;9.500;2024-02-26T13:16:15;9.90;99.90
15239;DHT22;7722;53.274;9.500;2024-02-26T13:18:42;10.00;99.90
15239;DHT22;7722;53.274;9.500;2024-02-26T13:21:12;10.10;99.90
15239;DHT22;7722;53.274;9.500;2024-02-26T13:23:39;10.00;99.90
15239;DHT22;7722;53.274;9.500;2024-02-26T13:26:09;10.00;99.90
15239;DHT22;7722;53.274;9.500;2024-02-26T13:28:38;10.10;99.90
15239;DHT22;7722;53.274;9.500;2024-02-26T13:31:05;10.10;99.90
15239;DHT22;7722;53.274;9.500;2024-02-26T13:33:34;10.00;99.90
15239;DHT22;7722;53.274;9.500;2024-02-26T13:36:01;9.90;99.90
15239;DHT22;7722;53.274;9.500;2024-02-26T13:38:28;10.00;99.90
15239;DHT22;7722;53.274;9.500;2024-02-26T13:40:55;10.00;99.90
15239;DHT22;7722;53.274;9.500;2024-02-26T13:43:24;10.10;99.90
15239;DHT22;7722;53.274;9.500;2024-02-26T13:45:51;10.10;99.90
15239;DHT22;7722;53.274;9.500;2024-02-26T13:48:18;10.00;99.90
15239;DHT22;7722;53.274;9.500;2024-02-26T13:50:45;9.70;99.90
15239;DHT22;7722;53.274;9.500;2024-02-26T13:53:12;10.00;99.90
15239;DHT22;7722;53.274;9.500;2024-02-26T13:55:41;9.80;99.90
15239;DHT22;7722;53.274;9.500;2024-02-26T13:58:12;9.80;99.90
15239;DHT22;7722;53.274;9.500;2024-02-26T14:00:47;9.80;99.90
15239;DHT22;7722;53.274;9.500;2024-02-26T14:03:15;10.10;99.90
15239;DHT22;7722;53.274;9.500;2024-02-26T14:05:42;10.00;99.90
15239;DHT22;7722;53.274;9.500;2024-02-26T14:08:10;9.80;99.90
15239;DHT22;7722;53.274;9.500;2024-02-26T14:10:37;9.40;99.90
15239;DHT22;7722;53.274;9.500;2024-02-26T14:13:05;9.40;99.90
15239;DHT22;7722;53.274;9.500;2024-02-26T14:15:33;9.40;99.90
15239;DHT22;7722;53.274;9.500;2024-02-26T14:18:02;9.40;99.90
15239;DHT22;7722;53.274;9.500;2024-02-26T14:20:29;9.20;99.90
15239;DHT22;7722;53.274;9.500;2024-02-26T14:22:56;8.90;99.90
15239;DHT22;7722;53.274;9.500;2024-02-26T14:25:23;8.80;99.90
15239;DHT22;7722;53.274;9.500;2024-02-26T14:27:51;8.80;99.90
15239;DHT22;7722;53.274;9.500;2024-02-26T14:30:18;8.70;99.90
15239;DHT22;7722;53.274;9.500;2024-02-26T14:32:45;8.50;99.90
15239;DHT22;7722;53.274;9.500;2024-02-26T14:35:13;8.30;99.90
15239;DHT22;7722;53.274;9.500;2024-02-26T14:37:40;8.20;99.90
15239;DHT22;7722;53.274;9.500;2024-02-26T14:40:08;8.10;99.90
15239;DHT22;7722;53.274;9.500;2024-02-26T14:42:35;7.90;99.90
15239;DHT22;7722;53.274;9.500;2024-02-26T14:45:03;7.80;99.90
15239;DHT22;7722;53.274;9.500;2024-02-26T14:47:32;7.70;99.90
15239;DHT22;7722;53.274;9.500;2024-02-26T14:49:59;7.70;99.90
15239;DHT22;7722;53.274;9.500;2024-02-26T14:52:28;7.70;99.90
15239;DHT22;7722;53.274;9.500;2024-02-26T14:54:55;7.50;99.90
15239;DHT22;7722;53.274;9.500;2024-02-26T14:57:23;7.60;99.90
15239;DHT22;7722;53.274;9.500;2024-02-26T14:59:50;7.70;99.90
15239;DHT22;7722;53.274;9.500;2024-02-26T15:02:18;7.50;99.90
15239;DHT22;7722;53.274;9.500;2024-02-26T15:04:45;7.50;99.90
15239;DHT22;7722;53.274;9.500;2024-02-26T15:07:12;7.50;99.90
15239;DHT22;7722;53.274;9.500;2024-02-26T15:09:40;7.50;99.90
15239;DHT22;7722;53.274;9.500;2024-02-26T15:12:07;7.40;99.90
15239;DHT22;7722;53.274;9.500;2024-02-26T15:14:35;7.20;99.90
15239;DHT22;7722;53.274;9.500;2024-02-26T15:17:02;7.20;99.90
15239;DHT22;7722;53.274;9.500;2024-02-26T15:19:30;7.30;99.90
15239;DHT22;7722;53.274;9.500;2024-02-26T15:21:57;7.20;99.90
15239;DHT22;7722;53.274;9.500;2024-02-26T15:24:24;7.20;99.90
15239;DHT22;7722;53.274;9.500;2024-02-26T15:26:52;7.10;99.90
15239;DHT22;7722;53.274;9.500;2024-02-26T15:29:19;7.00;99.90
15239;DHT22;7722;53.274;9.500;2024-02-26T15:31:46;6.90;99.90
15239;DHT22;7722;53.274;9.500;2024-02-26T15:34:13;6.90;99.90
15239;DHT22;7722;53.274;9.500;2024-02-26T15:36:41;6.80;99.90
15239;DHT22;7722;53.274;9.500;2024-02-26T15:39:08;6.80;99.90
15239;DHT22;7722;53.274;9.500;2024-02-26T15:41:35;6.80;99.90
15239;DHT22;7722;53.274;9.500;2024-02-26T15:44:03;6.80;99.90
15239;DHT22;7722;53.274;9.500;2024-02-26T15:46:31;6.70;99.90
15239;DHT22;7722;53.274;9.500;2024-02-26T15:48:58;6.70;99.90
15239;DHT22;7722;53.274;9.500;2024-02-26T15:51:25;6.60;99.90
15239;DHT22;7722;53.274;9.500;2024-02-26T15:53:52;6.60;99.90
15239;DHT22;7722;53.274;9.500;2024-02-26T15:56:19;6.50;99.90
15239;DHT22;7722;53.274;9.500;2024-02-26T15:58:49;6.40;99.90
15239;DHT22;7722;53.274;9.500;2024-02-26T16:01:18;6.40;99.90
15239;DHT22;7722;53.274;9.500;2024-02-26T16:03:46;6.40;99.90
15239;DHT22;7722;53.274;9.500;2024-02-26T16:06:18;6.30;99.90